sensor_id;sensor_type;location;lat;lon;timestamp;P1;durP1;ratioP1;P2;durP2;ratioP2
64868;SDS011;51349;52.424;10.840;2024-02-14T00:02:24;2.00;;;1.80;;
64868;SDS011;51349;52.424;10.840;2024-02-14T00:07:28;1.80;;;1.70;;
64868;SDS011;51349;52.424;10.840;2024-02-14T00:12:29;2.60;;;1.80;;
64868;SDS011;51349;52.424;10.840;2024-02-14T00:17:29;2.40;;;1.60;;
64868;SDS011;51349;52.424;10.840;2024-02-14T00:22:30;2.30;;;2.10;;
64868;SDS011;51349;52.424;10.840;2024-02-14T00:27:31;1.97;;;1.87;;
64868;SDS011;51349;52.424;10.840;2024-02-14T00:32:32;3.10;;;2.03;;
64868;SDS011;51349;52.424;10.840;2024-02-14T00:37:33;3.37;;;1.90;;
64868;SDS011;51349;52.424;10.840;2024-02-14T00:42:34;2.00;;;1.90;;
64868;SDS011;51349;52.424;10.840;2024-02-14T00:47:35;2.20;;;2.03;;
64868;SDS011;51349;52.424;10.840;2024-02-14T00:52:36;3.00;;;2.03;;
64868;SDS011;51349;52.424;10.840;2024-02-14T00:57:36;2.33;;;2.10;;
64868;SDS011;51349;52.424;10.840;2024-02-14T01:02:37;2.40;;;2.20;;
64868;SDS011;51349;52.424;10.840;2024-02-14T01:07:38;2.33;;;2.13;;
64868;SDS011;51349;52.424;10.840;2024-02-14T01:12:38;3.47;;;2.30;;
64868;SDS011;51349;52.424;10.840;2024-02-14T01:17:40;2.70;;;2.27;;
64868;SDS011;51349;52.424;10.840;2024-02-14T01:22:40;2.43;;;2.23;;
64868;SDS011;51349;52.424;10.840;2024-02-14T01:27:41;2.23;;;2.03;;
64868;SDS011;51349;52.424;10.840;2024-02-14T01:32:42;3.47;;;2.13;;
64868;SDS011;51349;52.424;10.840;2024-02-14T01:37:43;3.60;;;2.10;;
64868;SDS011;51349;52.424;10.840;2024-02-14T01:42:45;2.93;;;2.00;;
64868;SDS011;51349;52.424;10.840;2024-02-14T01:47:45;2.37;;;2.17;;
64868;SDS011;51349;52.424;10.840;2024-02-14T01:52:46;3.93;;;2.13;;
64868;SDS011;51349;52.424;10.840;2024-02-14T01:57:47;2.33;;;2.10;;
64868;SDS011;51349;52.424;10.840;2024-02-14T02:02:48;2.50;;;2.30;;
64868;SDS011;51349;52.424;10.840;2024-02-14T02:07:49;3.20;;;2.00;;
64868;SDS011;51349;52.424;10.840;2024-02-14T02:12:50;2.20;;;2.00;;
64868;SDS011;51349;52.424;10.840;2024-02-14T02:17:50;2.40;;;2.20;;
64868;SDS011;51349;52.424;10.840;2024-02-14T02:22:53;3.23;;;1.90;;
64868;SDS011;51349;52.424;10.840;2024-02-14T02:27:53;2.70;;;2.10;;
64868;SDS011;51349;52.424;10.840;2024-02-14T02:32:57;2.50;;;2.30;;
64868;SDS011;51349;52.424;10.840;2024-02-14T02:37:58;2.20;;;2.07;;
64868;SDS011;51349;52.424;10.840;2024-02-14T02:42:59;2.83;;;2.43;;
64868;SDS011;51349;52.424;10.840;2024-02-14T02:48:00;2.80;;;2.13;;
64868;SDS011;51349;52.424;10.840;2024-02-14T02:53:01;2.63;;;2.43;;
64868;SDS011;51349;52.424;10.840;2024-02-14T02:58:02;2.33;;;2.13;;
64868;SDS011;51349;52.424;10.840;2024-02-14T03:03:03;3.20;;;2.10;;
64868;SDS011;51349;52.424;10.840;2024-02-14T03:08:08;3.30;;;2.40;;
64868;SDS011;51349;52.424;10.840;2024-02-14T03:13:14;2.20;;;2.03;;
64868;SDS011;51349;52.424;10.840;2024-02-14T03:18:17;2.00;;;1.83;;
64868;SDS011;51349;52.424;10.840;2024-02-14T03:23:17;2.57;;;2.37;;
64868;SDS011;51349;52.424;10.840;2024-02-14T03:28:18;2.80;;;2.50;;
64868;SDS011;51349;52.424;10.840;2024-02-14T03:33:20;2.60;;;2.40;;
64868;SDS011;51349;52.424;10.840;2024-02-14T03:38:25;2.80;;;2.47;;
64868;SDS011;51349;52.424;10.840;2024-02-14T03:43:26;4.53;;;2.77;;
64868;SDS011;51349;52.424;10.840;2024-02-14T03:48:28;3.53;;;2.47;;
64868;SDS011;51349;52.424;10.840;2024-02-14T03:53:28;3.23;;;2.20;;
64868;SDS011;51349;52.424;10.840;2024-02-14T03:58:29;2.60;;;2.40;;
64868;SDS011;51349;52.424;10.840;2024-02-14T04:03:30;3.30;;;2.37;;
64868;SDS011;51349;52.424;10.840;2024-02-14T04:08:30;3.07;;;2.60;;
64868;SDS011;51349;52.424;10.840;2024-02-14T04:13:31;4.30;;;2.90;;
64868;SDS011;51349;52.424;10.840;2024-02-14T04:18:32;3.33;;;2.60;;
64868;SDS011;51349;52.424;10.840;2024-02-14T04:23:32;2.97;;;2.67;;
64868;SDS011;51349;52.424;10.840;2024-02-14T04:28:33;3.03;;;2.73;;
64868;SDS011;51349;52.424;10.840;2024-02-14T04:33:34;4.13;;;2.70;;
64868;SDS011;51349;52.424;10.840;2024-02-14T04:38:35;2.70;;;2.50;;
64868;SDS011;51349;52.424;10.840;2024-02-14T04:43:36;2.83;;;2.63;;
64868;SDS011;51349;52.424;10.840;2024-02-14T04:48:36;3.50;;;2.90;;
64868;SDS011;51349;52.424;10.840;2024-02-14T04:53:37;3.20;;;2.90;;
64868;SDS011;51349;52.424;10.840;2024-02-14T04:58:38;5.30;;;3.10;;
64868;SDS011;51349;52.424;10.840;2024-02-14T05:03:39;3.57;;;2.70;;
64868;SDS011;51349;52.424;10.840;2024-02-14T05:08:39;3.30;;;3.00;;
64868;SDS011;51349;52.424;10.840;2024-02-14T05:13:40;5.20;;;3.03;;
64868;SDS011;51349;52.424;10.840;2024-02-14T05:18:41;3.23;;;2.67;;
64868;SDS011;51349;52.424;10.840;2024-02-14T05:23:42;4.53;;;3.10;;
64868;SDS011;51349;52.424;10.840;2024-02-14T05:28:43;5.30;;;2.77;;
64868;SDS011;51349;52.424;10.840;2024-02-14T05:33:43;3.03;;;2.73;;
64868;SDS011;51349;52.424;10.840;2024-02-14T05:38:44;5.23;;;3.40;;
64868;SDS011;51349;52.424;10.840;2024-02-14T05:43:45;3.43;;;3.00;;
64868;SDS011;51349;52.424;10.840;2024-02-14T05:48:46;3.20;;;2.90;;
64868;SDS011;51349;52.424;10.840;2024-02-14T05:53:48;4.17;;;3.00;;
64868;SDS011;51349;52.424;10.840;2024-02-14T05:58:48;3.73;;;2.97;;
64868;SDS011;51349;52.424;10.840;2024-02-14T06:03:49;3.60;;;2.80;;
64868;SDS011;51349;52.424;10.840;2024-02-14T06:08:50;3.93;;;3.37;;
64868;SDS011;51349;52.424;10.840;2024-02-14T06:13:50;5.27;;;3.47;;
64868;SDS011;51349;52.424;10.840;2024-02-14T06:18:51;4.10;;;3.00;;
64868;SDS011;51349;52.424;10.840;2024-02-14T06:23:52;3.33;;;3.03;;
64868;SDS011;51349;52.424;10.840;2024-02-14T06:28:53;4.90;;;3.10;;
64868;SDS011;51349;52.424;10.840;2024-02-14T06:33:54;3.47;;;3.07;;
64868;SDS011;51349;52.424;10.840;2024-02-14T06:38:55;4.20;;;3.43;;
64868;SDS011;51349;52.424;10.840;2024-02-14T06:43:56;3.30;;;3.00;;
64868;SDS011;51349;52.424;10.840;2024-02-14T06:48:57;4.30;;;3.17;;
64868;SDS011;51349;52.424;10.840;2024-02-14T06:53:58;3.90;;;3.20;;
64868;SDS011;51349;52.424;10.840;2024-02-14T06:58:58;5.57;;;4.00;;
64868;SDS011;51349;52.424;10.840;2024-02-14T07:04:00;13.70;;;7.30;;
64868;SDS011;51349;52.424;10.840;2024-02-14T07:09:01;8.53;;;5.17;;
64868;SDS011;51349;52.424;10.840;2024-02-14T07:14:02;6.73;;;4.30;;
64868;SDS011;51349;52.424;10.840;2024-02-14T07:19:03;5.63;;;4.93;;
64868;SDS011;51349;52.424;10.840;2024-02-14T07:24:04;8.53;;;5.57;;
64868;SDS011;51349;52.424;10.840;2024-02-14T07:29:05;4.70;;;3.70;;
64868;SDS011;51349;52.424;10.840;2024-02-14T07:34:06;6.33;;;4.60;;
64868;SDS011;51349;52.424;10.840;2024-02-14T07:39:07;6.50;;;4.53;;
64868;SDS011;51349;52.424;10.840;2024-02-14T07:44:07;5.30;;;3.80;;
64868;SDS011;51349;52.424;10.840;2024-02-14T07:49:08;4.40;;;4.00;;
64868;SDS011;51349;52.424;10.840;2024-02-14T07:54:10;3.23;;;2.77;;
64868;SDS011;51349;52.424;10.840;2024-02-14T07:59:10;3.20;;;2.90;;
64868;SDS011;51349;52.424;10.840;2024-02-14T08:04:11;2.87;;;2.60;;
64868;SDS011;51349;52.424;10.840;2024-02-14T08:09:12;5.37;;;3.73;;
64868;SDS011;51349;52.424;10.840;2024-02-14T08:14:13;3.77;;;2.77;;
64868;SDS011;51349;52.424;10.840;2024-02-14T08:19:13;3.23;;;2.83;;
64868;SDS011;51349;52.424;10.840;2024-02-14T08:24:15;7.23;;;3.93;;
64868;SDS011;51349;52.424;10.840;2024-02-14T08:29:17;5.30;;;3.53;;
64868;SDS011;51349;52.424;10.840;2024-02-14T08:34:18;6.83;;;3.57;;
64868;SDS011;51349;52.424;10.840;2024-02-14T08:39:19;4.90;;;4.47;;
64868;SDS011;51349;52.424;10.840;2024-02-14T08:44:20;4.43;;;2.90;;
64868;SDS011;51349;52.424;10.840;2024-02-14T08:49:20;5.27;;;3.30;;
64868;SDS011;51349;52.424;10.840;2024-02-14T08:54:21;3.67;;;3.00;;
64868;SDS011;51349;52.424;10.840;2024-02-14T08:59:23;2.90;;;2.70;;
64868;SDS011;51349;52.424;10.840;2024-02-14T09:04:23;2.93;;;2.40;;
64868;SDS011;51349;52.424;10.840;2024-02-14T09:09:24;3.20;;;2.90;;
64868;SDS011;51349;52.424;10.840;2024-02-14T09:14:25;3.17;;;2.40;;
64868;SDS011;51349;52.424;10.840;2024-02-14T09:19:25;2.63;;;2.43;;
64868;SDS011;51349;52.424;10.840;2024-02-14T09:24:27;3.10;;;2.37;;
64868;SDS011;51349;52.424;10.840;2024-02-14T09:29:28;3.03;;;2.17;;
64868;SDS011;51349;52.424;10.840;2024-02-14T09:34:29;3.70;;;2.40;;
64868;SDS011;51349;52.424;10.840;2024-02-14T09:39:30;2.27;;;2.07;;
64868;SDS011;51349;52.424;10.840;2024-02-14T09:44:31;2.40;;;2.20;;
64868;SDS011;51349;52.424;10.840;2024-02-14T09:49:33;2.20;;;2.00;;
64868;SDS011;51349;52.424;10.840;2024-02-14T09:54:36;3.20;;;2.30;;
64868;SDS011;51349;52.424;10.840;2024-02-14T09:59:39;2.50;;;2.07;;
64868;SDS011;51349;52.424;10.840;2024-02-14T10:04:40;3.20;;;2.90;;
64868;SDS011;51349;52.424;10.840;2024-02-14T10:09:41;5.37;;;2.90;;
64868;SDS011;51349;52.424;10.840;2024-02-14T10:14:43;3.20;;;2.63;;
64868;SDS011;51349;52.424;10.840;2024-02-14T10:19:58;4.33;;;3.93;;
64868;SDS011;51349;52.424;10.840;2024-02-14T10:25:03;3.07;;;2.77;;
64868;SDS011;51349;52.424;10.840;2024-02-14T10:30:12;4.30;;;3.07;;
64868;SDS011;51349;52.424;10.840;2024-02-14T10:35:14;3.70;;;3.40;;
64868;SDS011;51349;52.424;10.840;2024-02-14T10:40:16;3.23;;;2.93;;
64868;SDS011;51349;52.424;10.840;2024-02-14T10:45:17;3.83;;;3.53;;
64868;SDS011;51349;52.424;10.840;2024-02-14T10:50:18;2.80;;;2.57;;
64868;SDS011;51349;52.424;10.840;2024-02-14T10:55:22;3.20;;;2.90;;
64868;SDS011;51349;52.424;10.840;2024-02-14T11:00:26;3.47;;;3.17;;
64868;SDS011;51349;52.424;10.840;2024-02-14T11:05:28;3.20;;;2.90;;
64868;SDS011;51349;52.424;10.840;2024-02-14T11:10:29;2.80;;;2.60;;
64868;SDS011;51349;52.424;10.840;2024-02-14T11:15:30;3.50;;;3.10;;
64868;SDS011;51349;52.424;10.840;2024-02-14T11:20:36;3.40;;;2.80;;
64868;SDS011;51349;52.424;10.840;2024-02-14T11:25:37;3.33;;;3.03;;
64868;SDS011;51349;52.424;10.840;2024-02-14T11:30:39;3.27;;;2.80;;
64868;SDS011;51349;52.424;10.840;2024-02-14T11:35:41;3.43;;;3.13;;
64868;SDS011;51349;52.424;10.840;2024-02-14T11:40:42;3.30;;;2.80;;
64868;SDS011;51349;52.424;10.840;2024-02-14T11:45:44;3.20;;;3.00;;
64868;SDS011;51349;52.424;10.840;2024-02-14T11:50:53;3.27;;;2.77;;
64868;SDS011;51349;52.424;10.840;2024-02-14T11:55:55;3.00;;;2.70;;
64868;SDS011;51349;52.424;10.840;2024-02-14T12:00:57;3.17;;;2.60;;
64868;SDS011;51349;52.424;10.840;2024-02-14T12:06:00;4.33;;;2.70;;
64868;SDS011;51349;52.424;10.840;2024-02-14T12:11:03;2.90;;;2.60;;
64868;SDS011;51349;52.424;10.840;2024-02-14T12:16:04;3.17;;;2.53;;
64868;SDS011;51349;52.424;10.840;2024-02-14T12:21:07;2.80;;;2.60;;
64868;SDS011;51349;52.424;10.840;2024-02-14T12:26:08;3.03;;;2.83;;
64868;SDS011;51349;52.424;10.840;2024-02-14T12:31:11;2.40;;;2.20;;
64868;SDS011;51349;52.424;10.840;2024-02-14T12:36:21;4.73;;;2.40;;
64868;SDS011;51349;52.424;10.840;2024-02-14T12:41:22;2.60;;;2.40;;
64868;SDS011;51349;52.424;10.840;2024-02-14T12:46:35;4.77;;;2.30;;
64868;SDS011;51349;52.424;10.840;2024-02-14T12:51:38;2.47;;;2.28;;
64868;SDS011;51349;52.424;10.840;2024-02-14T12:56:39;3.83;;;2.40;;
64868;SDS011;51349;52.424;10.840;2024-02-14T13:01:40;2.27;;;2.17;;
64868;SDS011;51349;52.424;10.840;2024-02-14T13:06:41;3.33;;;2.45;;
64868;SDS011;51349;52.424;10.840;2024-02-14T13:11:42;2.55;;;2.35;;
64868;SDS011;51349;52.424;10.840;2024-02-14T13:16:43;2.50;;;2.30;;
64868;SDS011;51349;52.424;10.840;2024-02-14T13:21:46;2.10;;;2.00;;
64868;SDS011;51349;52.424;10.840;2024-02-14T13:26:48;2.30;;;2.10;;
64868;SDS011;51349;52.424;10.840;2024-02-14T13:31:48;2.23;;;1.93;;
64868;SDS011;51349;52.424;10.840;2024-02-14T13:36:52;2.38;;;2.17;;
64868;SDS011;51349;52.424;10.840;2024-02-14T13:41:52;2.42;;;2.17;;
64868;SDS011;51349;52.424;10.840;2024-02-14T13:46:54;2.80;;;2.60;;
64868;SDS011;51349;52.424;10.840;2024-02-14T13:51:55;2.70;;;2.50;;
64868;SDS011;51349;52.424;10.840;2024-02-14T13:56:58;2.60;;;2.40;;
64868;SDS011;51349;52.424;10.840;2024-02-14T14:01:58;2.92;;;2.70;;
64868;SDS011;51349;52.424;10.840;2024-02-14T14:06:59;2.55;;;2.20;;
64868;SDS011;51349;52.424;10.840;2024-02-14T14:12:03;3.22;;;2.30;;
64868;SDS011;51349;52.424;10.840;2024-02-14T14:17:03;2.60;;;2.40;;
64868;SDS011;51349;52.424;10.840;2024-02-14T14:22:05;3.45;;;3.20;;
64868;SDS011;51349;52.424;10.840;2024-02-14T14:27:05;2.58;;;2.20;;
64868;SDS011;51349;52.424;10.840;2024-02-14T14:32:11;2.28;;;2.08;;
64868;SDS011;51349;52.424;10.840;2024-02-14T14:37:12;2.60;;;2.40;;
64868;SDS011;51349;52.424;10.840;2024-02-14T14:42:12;2.45;;;2.10;;
64868;SDS011;51349;52.424;10.840;2024-02-14T14:47:13;2.30;;;2.15;;
64868;SDS011;51349;52.424;10.840;2024-02-14T14:52:14;2.63;;;2.00;;
64868;SDS011;51349;52.424;10.840;2024-02-14T14:57:14;2.75;;;2.25;;
64868;SDS011;51349;52.424;10.840;2024-02-14T15:02:15;1.92;;;1.83;;
64868;SDS011;51349;52.424;10.840;2024-02-14T15:07:16;3.38;;;3.08;;
64868;SDS011;51349;52.424;10.840;2024-02-14T15:12:20;3.20;;;3.00;;
64868;SDS011;51349;52.424;10.840;2024-02-14T15:17:26;2.10;;;2.00;;
64868;SDS011;51349;52.424;10.840;2024-02-14T15:22:28;2.85;;;2.65;;
64868;SDS011;51349;52.424;10.840;2024-02-14T15:27:30;5.53;;;5.03;;
64868;SDS011;51349;52.424;10.840;2024-02-14T15:32:32;2.40;;;2.30;;
64868;SDS011;51349;52.424;10.840;2024-02-14T15:37:51;2.90;;;2.70;;
64868;SDS011;51349;52.424;10.840;2024-02-14T15:42:53;5.78;;;4.30;;
64868;SDS011;51349;52.424;10.840;2024-02-14T15:47:54;1.90;;;1.67;;
64868;SDS011;51349;52.424;10.840;2024-02-14T15:52:56;2.88;;;2.60;;
64868;SDS011;51349;52.424;10.840;2024-02-14T15:57:57;3.50;;;3.20;;
64868;SDS011;51349;52.424;10.840;2024-02-14T16:02:58;2.83;;;2.70;;
64868;SDS011;51349;52.424;10.840;2024-02-14T16:07:59;2.20;;;2.10;;
64868;SDS011;51349;52.424;10.840;2024-02-14T16:13:01;2.22;;;2.00;;
64868;SDS011;51349;52.424;10.840;2024-02-14T16:18:02;2.35;;;2.15;;
64868;SDS011;51349;52.424;10.840;2024-02-14T16:23:03;2.17;;;2.00;;
64868;SDS011;51349;52.424;10.840;2024-02-14T16:28:05;1.90;;;1.80;;
64868;SDS011;51349;52.424;10.840;2024-02-14T16:33:07;1.83;;;1.67;;
64868;SDS011;51349;52.424;10.840;2024-02-14T16:38:08;2.63;;;1.70;;
64868;SDS011;51349;52.424;10.840;2024-02-14T16:43:09;2.13;;;1.90;;
64868;SDS011;51349;52.424;10.840;2024-02-14T16:48:10;2.95;;;1.80;;
64868;SDS011;51349;52.424;10.840;2024-02-14T16:53:10;2.08;;;1.98;;
64868;SDS011;51349;52.424;10.840;2024-02-14T16:58:11;3.30;;;2.97;;
64868;SDS011;51349;52.424;10.840;2024-02-14T17:03:12;4.03;;;3.63;;
64868;SDS011;51349;52.424;10.840;2024-02-14T17:08:12;2.43;;;2.13;;
64868;SDS011;51349;52.424;10.840;2024-02-14T17:13:13;3.60;;;3.40;;
64868;SDS011;51349;52.424;10.840;2024-02-14T17:18:15;1.88;;;1.77;;
64868;SDS011;51349;52.424;10.840;2024-02-14T17:23:15;2.50;;;2.30;;
64868;SDS011;51349;52.424;10.840;2024-02-14T17:28:16;2.22;;;2.13;;
64868;SDS011;51349;52.424;10.840;2024-02-14T17:33:17;3.00;;;2.10;;
64868;SDS011;51349;52.424;10.840;2024-02-14T17:38:18;2.78;;;2.38;;
64868;SDS011;51349;52.424;10.840;2024-02-14T17:43:19;3.30;;;2.40;;
64868;SDS011;51349;52.424;10.840;2024-02-14T17:48:19;4.55;;;2.70;;
64868;SDS011;51349;52.424;10.840;2024-02-14T17:53:20;4.20;;;3.25;;
64868;SDS011;51349;52.424;10.840;2024-02-14T17:58:21;3.20;;;2.90;;
64868;SDS011;51349;52.424;10.840;2024-02-14T18:03:22;2.75;;;2.50;;
64868;SDS011;51349;52.424;10.840;2024-02-14T18:08:22;2.83;;;2.55;;
64868;SDS011;51349;52.424;10.840;2024-02-14T18:13:23;3.63;;;2.20;;
64868;SDS011;51349;52.424;10.840;2024-02-14T18:18:24;4.85;;;4.22;;
64868;SDS011;51349;52.424;10.840;2024-02-14T18:23:25;2.30;;;2.10;;
64868;SDS011;51349;52.424;10.840;2024-02-14T18:28:27;3.53;;;3.22;;
64868;SDS011;51349;52.424;10.840;2024-02-14T18:33:30;3.20;;;3.00;;
64868;SDS011;51349;52.424;10.840;2024-02-14T18:38:32;4.85;;;3.10;;
64868;SDS011;51349;52.424;10.840;2024-02-14T18:43:33;3.78;;;3.45;;
64868;SDS011;51349;52.424;10.840;2024-02-14T18:48:34;3.25;;;3.03;;
64868;SDS011;51349;52.424;10.840;2024-02-14T18:53:37;2.70;;;2.55;;
64868;SDS011;51349;52.424;10.840;2024-02-14T18:58:37;4.03;;;3.63;;
64868;SDS011;51349;52.424;10.840;2024-02-14T19:03:38;4.47;;;3.60;;
64868;SDS011;51349;52.424;10.840;2024-02-14T19:08:39;3.07;;;2.50;;
64868;SDS011;51349;52.424;10.840;2024-02-14T19:13:39;2.63;;;2.43;;
64868;SDS011;51349;52.424;10.840;2024-02-14T19:18:40;3.85;;;2.90;;
64868;SDS011;51349;52.424;10.840;2024-02-14T19:23:41;3.77;;;3.03;;
64868;SDS011;51349;52.424;10.840;2024-02-14T19:28:42;2.93;;;2.40;;
64868;SDS011;51349;52.424;10.840;2024-02-14T19:33:42;6.00;;;3.40;;
64868;SDS011;51349;52.424;10.840;2024-02-14T19:38:45;2.83;;;2.60;;
64868;SDS011;51349;52.424;10.840;2024-02-14T19:43:46;3.70;;;2.60;;
64868;SDS011;51349;52.424;10.840;2024-02-14T19:48:46;3.78;;;3.42;;
64868;SDS011;51349;52.424;10.840;2024-02-14T19:53:47;2.67;;;2.47;;
64868;SDS011;51349;52.424;10.840;2024-02-14T19:58:48;2.75;;;2.55;;
64868;SDS011;51349;52.424;10.840;2024-02-14T20:03:49;3.72;;;2.45;;
64868;SDS011;51349;52.424;10.840;2024-02-14T20:08:50;3.90;;;3.60;;
64868;SDS011;51349;52.424;10.840;2024-02-14T20:13:51;3.55;;;3.25;;
64868;SDS011;51349;52.424;10.840;2024-02-14T20:18:53;2.47;;;2.38;;
64868;SDS011;51349;52.424;10.840;2024-02-14T20:23:53;5.63;;;3.65;;
64868;SDS011;51349;52.424;10.840;2024-02-14T20:28:54;3.30;;;3.00;;
64868;SDS011;51349;52.424;10.840;2024-02-14T20:33:55;2.72;;;2.53;;
64868;SDS011;51349;52.424;10.840;2024-02-14T20:38:56;2.30;;;2.20;;
64868;SDS011;51349;52.424;10.840;2024-02-14T20:43:56;2.23;;;2.00;;
64868;SDS011;51349;52.424;10.840;2024-02-14T20:48:57;3.35;;;2.50;;
64868;SDS011;51349;52.424;10.840;2024-02-14T20:53:58;2.80;;;2.60;;
64868;SDS011;51349;52.424;10.840;2024-02-14T20:58:58;3.30;;;2.70;;
64868;SDS011;51349;52.424;10.840;2024-02-14T21:04:02;2.53;;;2.33;;
64868;SDS011;51349;52.424;10.840;2024-02-14T21:09:03;2.65;;;2.45;;
64868;SDS011;51349;52.424;10.840;2024-02-14T21:14:04;3.65;;;2.35;;
64868;SDS011;51349;52.424;10.840;2024-02-14T21:19:07;2.58;;;2.38;;
64868;SDS011;51349;52.424;10.840;2024-02-14T21:24:08;2.50;;;2.30;;
64868;SDS011;51349;52.424;10.840;2024-02-14T21:29:09;2.70;;;2.47;;
64868;SDS011;51349;52.424;10.840;2024-02-14T21:34:10;2.63;;;2.42;;
64868;SDS011;51349;52.424;10.840;2024-02-14T21:39:11;3.47;;;3.15;;
64868;SDS011;51349;52.424;10.840;2024-02-14T21:44:15;3.10;;;2.40;;
64868;SDS011;51349;52.424;10.840;2024-02-14T21:49:15;2.83;;;2.63;;
64868;SDS011;51349;52.424;10.840;2024-02-14T21:54:19;2.67;;;2.50;;
64868;SDS011;51349;52.424;10.840;2024-02-14T21:59:20;2.80;;;2.60;;
64868;SDS011;51349;52.424;10.840;2024-02-14T22:04:21;4.32;;;2.85;;
64868;SDS011;51349;52.424;10.840;2024-02-14T22:09:22;3.40;;;3.10;;
64868;SDS011;51349;52.424;10.840;2024-02-14T22:14:24;3.53;;;2.80;;
64868;SDS011;51349;52.424;10.840;2024-02-14T22:19:25;3.08;;;2.88;;
64868;SDS011;51349;52.424;10.840;2024-02-14T22:24:25;3.30;;;3.00;;
64868;SDS011;51349;52.424;10.840;2024-02-14T22:29:28;2.90;;;2.70;;
64868;SDS011;51349;52.424;10.840;2024-02-14T22:34:29;3.13;;;2.93;;
64868;SDS011;51349;52.424;10.840;2024-02-14T22:39:30;3.13;;;2.60;;
64868;SDS011;51349;52.424;10.840;2024-02-14T22:44:31;3.25;;;3.00;;
64868;SDS011;51349;52.424;10.840;2024-02-14T22:49:32;3.42;;;3.13;;
64868;SDS011;51349;52.424;10.840;2024-02-14T22:54:33;3.58;;;3.28;;
64868;SDS011;51349;52.424;10.840;2024-02-14T22:59:33;4.15;;;3.15;;
64868;SDS011;51349;52.424;10.840;2024-02-14T23:04:35;3.45;;;3.25;;
64868;SDS011;51349;52.424;10.840;2024-02-14T23:09:38;3.55;;;3.22;;
64868;SDS011;51349;52.424;10.840;2024-02-14T23:14:39;4.38;;;3.47;;
64868;SDS011;51349;52.424;10.840;2024-02-14T23:19:39;3.60;;;3.37;;
64868;SDS011;51349;52.424;10.840;2024-02-14T23:24:40;3.70;;;3.40;;
64868;SDS011;51349;52.424;10.840;2024-02-14T23:29:40;3.83;;;3.53;;
64868;SDS011;51349;52.424;10.840;2024-02-14T23:34:41;4.20;;;3.75;;
64868;SDS011;51349;52.424;10.840;2024-02-14T23:39:42;3.90;;;3.60;;
64868;SDS011;51349;52.424;10.840;2024-02-14T23:44:43;5.10;;;3.92;;
64868;SDS011;51349;52.424;10.840;2024-02-14T23:49:44;4.60;;;3.55;;
64868;SDS011;51349;52.424;10.840;2024-02-14T23:54:44;4.68;;;4.03;;
64868;SDS011;51349;52.424;10.840;2024-02-14T23:59:49;4.20;;;3.80;;
